Time;durP1;ratioP1;P1;durP2;ratioP2;P2;SDS_P1;SDS_P2;PMS_P1;PMS_P2;Temp;Humidity;BMP_temperature;BMP_pressure;BME280_temperature;BME280_humidity;BME280_pressure;Samples;Min_cycle;Max_cycle;Signal;HPM_P1;HPM_P2
2021/08/18 00:02:21;;;;;;;;;;;20.50;61.40;;;;;;5011990;28;1294;-71
2021/08/18 00:04:47;;;;;;;;;;;20.50;61.10;;;;;;5011887;28;1076;-72
2021/08/18 00:07:12;;;;;;;;;;;20.50;60.90;;;;;;5011718;28;1906;-71
2021/08/18 00:09:38;;;;;;;;;;;20.60;61.10;;;;;;5013623;28;1096;-71
2021/08/18 00:12:03;;;;;;;;;;;20.60;61.20;;;;;;5015495;28;1327;-71
2021/08/18 00:14:29;;;;;;;;;;;20.50;62.00;;;;;;4997674;28;1289;-71
2021/08/18 00:16:54;;;;;;;;;;;20.50;61.10;;;;;;5014978;28;1282;-71
2021/08/18 00:19:20;;;;;;;;;;;20.50;61.20;;;;;;5015367;28;1329;-71
2021/08/18 00:21:45;;;;;;;;;;;20.50;61.10;;;;;;5015070;28;1215;-72
2021/08/18 00:24:11;;;;;;;;;;;20.50;61.00;;;;;;5015259;28;1312;-71
2021/08/18 00:26:36;;;;;;;;;;;20.50;61.20;;;;;;5014697;28;1898;-71
2021/08/18 00:29:03;;;;;;;;;;;20.50;61.20;;;;;;5027804;28;1041;-71
2021/08/18 00:31:28;;;;;;;;;;;20.50;61.30;;;;;;5015025;28;1422;-71
2021/08/18 00:33:54;;;;;;;;;;;20.50;61.10;;;;;;5014963;28;1275;-72
2021/08/18 00:36:19;;;;;;;;;;;20.50;60.90;;;;;;5014913;28;1064;-71
2021/08/18 00:38:45;;;;;;;;;;;20.50;61.00;;;;;;5014923;28;1249;-72
2021/08/18 00:41:10;;;;;;;;;;;20.50;61.30;;;;;;4997316;28;1343;-72
2021/08/18 00:43:36;;;;;;;;;;;20.50;61.20;;;;;;4996991;28;1112;-72
2021/08/18 00:46:01;;;;;;;;;;;20.50;61.00;;;;;;5014380;28;1906;-71
2021/08/18 00:48:28;;;;;;;;;;;20.50;62.00;;;;;;5014777;28;1273;-71
2021/08/18 00:50:53;;;;;;;;;;;20.50;61.20;;;;;;5014497;28;1354;-71
2021/08/18 00:53:18;;;;;;;;;;;20.50;61.20;;;;;;5014782;28;1289;-71
2021/08/18 00:55:44;;;;;;;;;;;20.50;61.20;;;;;;5019745;28;1170;-71
2021/08/18 00:58:09;;;;;;;;;;;20.50;61.20;;;;;;5005847;28;1245;-72
2021/08/18 01:00:35;;;;;;;;;;;20.50;61.30;;;;;;4991927;28;1348;-71
2021/08/18 01:03:00;;;;;;;;;;;20.50;61.40;;;;;;4997290;28;1386;-71
2021/08/18 01:05:27;;;;;;;;;;;20.50;61.50;;;;;;5014371;28;1910;-71
2021/08/18 01:07:54;;;;;;;;;;;20.50;61.60;;;;;;4997303;28;1285;-71
2021/08/18 01:10:26;;;;;;;;;;;20.50;61.40;;;;;;5014772;28;1420;-72
2021/08/18 01:12:52;;;;;;;;;;;20.50;61.20;;;;;;5014323;28;1378;-71
2021/08/18 01:15:18;;;;;;;;;;;20.50;61.20;;;;;;4996989;28;1274;-71
2021/08/18 01:17:44;;;;;;;;;;;20.50;61.20;;;;;;4996950;28;1213;-72
2021/08/18 01:20:10;;;;;;;;;;;20.50;61.20;;;;;;5014393;28;1293;-71
2021/08/18 01:22:35;;;;;;;;;;;20.50;61.10;;;;;;5014215;28;1277;-71
2021/08/18 01:25:02;;;;;;;;;;;20.50;60.90;;;;;;4996610;28;1957;-71
2021/08/18 01:27:28;;;;;;;;;;;20.50;61.00;;;;;;4997255;28;1308;-71
2021/08/18 01:29:54;;;;;;;;;;;20.50;61.10;;;;;;5014220;28;1277;-72
2021/08/18 01:32:19;;;;;;;;;;;20.50;61.10;;;;;;4996600;28;1372;-72
2021/08/18 01:34:45;;;;;;;;;;;20.50;60.90;;;;;;5014191;28;1286;-71
2021/08/18 01:37:10;;;;;;;;;;;20.50;60.90;;;;;;5013956;28;1319;-71
2021/08/18 01:39:36;;;;;;;;;;;20.50;60.90;;;;;;5013853;28;1334;-71
2021/08/18 01:42:01;;;;;;;;;;;20.50;60.90;;;;;;5013424;28;1288;-72
2021/08/18 01:44:27;;;;;;;;;;;20.50;60.90;;;;;;5013639;28;1425;-72
2021/08/18 01:46:52;;;;;;;;;;;20.50;61.00;;;;;;5013333;28;1958;-72
2021/08/18 01:49:18;;;;;;;;;;;20.50;61.00;;;;;;5013789;28;1445;-71
2021/08/18 01:51:43;;;;;;;;;;;20.50;61.00;;;;;;4995834;28;1349;-71
2021/08/18 01:54:09;;;;;;;;;;;20.50;61.00;;;;;;5013542;28;1328;-71
2021/08/18 01:56:34;;;;;;;;;;;20.50;60.90;;;;;;5017713;28;1130;-72
2021/08/18 01:59:01;;;;;;;;;;;20.40;61.20;;;;;;5013425;28;1267;-71
2021/08/18 02:01:26;;;;;;;;;;;20.40;61.30;;;;;;4995746;28;1391;-71
2021/08/18 02:03:52;;;;;;;;;;;20.50;61.10;;;;;;4995786;28;1349;-71
2021/08/18 02:06:17;;;;;;;;;;;20.50;61.10;;;;;;5013354;28;1977;-72
2021/08/18 02:08:43;;;;;;;;;;;20.40;61.30;;;;;;5013486;28;1321;-71
2021/08/18 02:11:09;;;;;;;;;;;20.40;61.30;;;;;;4998608;28;1328;-71
2021/08/18 02:13:34;;;;;;;;;;;20.40;61.10;;;;;;5013430;28;1256;-71
2021/08/18 02:16:00;;;;;;;;;;;20.40;60.90;;;;;;5013161;28;1265;-71
2021/08/18 02:18:25;;;;;;;;;;;20.40;60.90;;;;;;5013750;28;1283;-72
2021/08/18 02:20:51;;;;;;;;;;;20.40;60.70;;;;;;5013384;28;1316;-71
2021/08/18 02:23:16;;;;;;;;;;;20.40;60.80;;;;;;5013571;28;1303;-71
2021/08/18 02:25:42;;;;;;;;;;;20.40;60.80;;;;;;5013066;28;1902;-71
2021/08/18 02:28:07;;;;;;;;;;;20.40;60.90;;;;;;5019428;28;1309;-72
2021/08/18 02:30:33;;;;;;;;;;;20.40;61.00;;;;;;5009296;28;1315;-72
2021/08/18 02:32:58;;;;;;;;;;;20.40;60.90;;;;;;5000769;28;1444;-73
2021/08/18 02:35:24;;;;;;;;;;;20.40;60.90;;;;;;5003511;28;1221;-72
2021/08/18 02:37:50;;;;;;;;;;;20.40;61.00;;;;;;4990249;28;1400;-72
2021/08/18 02:40:20;;;;;;;;;;;20.40;60.90;;;;;;4986047;28;1473;-73
2021/08/18 02:42:49;;;;;;;;;;;20.40;60.90;;;;;;4987799;28;1341;-71
2021/08/18 02:45:15;;;;;;;;;;;20.40;61.00;;;;;;4988107;28;1906;-72
2021/08/18 02:47:40;;;;;;;;;;;20.40;61.10;;;;;;5009451;28;1329;-72
2021/08/18 02:50:09;;;;;;;;;;;20.40;61.10;;;;;;4987356;28;1349;-71
2021/08/18 02:52:34;;;;;;;;;;;20.40;60.90;;;;;;4995403;28;1339;-71
2021/08/18 02:54:59;;;;;;;;;;;20.40;61.70;;;;;;5018051;28;1344;-71
2021/08/18 02:57:25;;;;;;;;;;;20.40;61.00;;;;;;5012803;28;1296;-71
2021/08/18 02:59:52;;;;;;;;;;;20.40;61.00;;;;;;5012973;28;1301;-71
2021/08/18 03:02:18;;;;;;;;;;;20.40;60.90;;;;;;5013380;28;1377;-71
2021/08/18 03:04:43;;;;;;;;;;;20.40;60.80;;;;;;4995418;28;1365;-71
2021/08/18 03:07:09;;;;;;;;;;;20.40;60.40;;;;;;5012486;28;1914;-71
2021/08/18 03:09:34;;;;;;;;;;;20.40;60.40;;;;;;5012932;28;1313;-70
2021/08/18 03:12:00;;;;;;;;;;;20.40;61.10;;;;;;5012796;28;1337;-71
2021/08/18 03:14:25;;;;;;;;;;;20.40;61.10;;;;;;5013121;28;1416;-70
2021/08/18 03:16:51;;;;;;;;;;;20.40;61.00;;;;;;5012444;28;1335;-70
2021/08/18 03:19:16;;;;;;;;;;;20.40;60.80;;;;;;5012802;28;1315;-71
2021/08/18 03:21:42;;;;;;;;;;;20.40;60.50;;;;;;5012533;28;1361;-71
2021/08/18 03:24:07;;;;;;;;;;;20.30;60.80;;;;;;5012660;28;1504;-70
2021/08/18 03:26:33;;;;;;;;;;;20.40;60.90;;;;;;5012293;28;1961;-71
2021/08/18 03:28:58;;;;;;;;;;;20.40;60.90;;;;;;5014051;28;1598;-71
2021/08/18 03:31:24;;;;;;;;;;;20.40;60.90;;;;;;5012745;28;1317;-70
2021/08/18 03:33:49;;;;;;;;;;;20.40;60.70;;;;;;5012828;28;1647;-71
2021/08/18 03:36:14;;;;;;;;;;;20.40;60.50;;;;;;5012600;28;1674;-70
2021/08/18 03:38:40;;;;;;;;;;;20.40;60.70;;;;;;5012601;28;1379;-71
2021/08/18 03:41:06;;;;;;;;;;;20.30;60.60;;;;;;5012648;28;1645;-71
2021/08/18 03:43:31;;;;;;;;;;;20.30;60.70;;;;;;4995264;28;1645;-70
2021/08/18 03:45:56;;;;;;;;;;;20.40;60.70;;;;;;5016222;28;1910;-71
2021/08/18 03:48:22;;;;;;;;;;;20.40;60.60;;;;;;5016415;28;1354;-71
2021/08/18 03:50:48;;;;;;;;;;;20.40;60.70;;;;;;5003161;28;1600;-72
2021/08/18 03:53:13;;;;;;;;;;;20.40;60.70;;;;;;5016342;28;1403;-71
2021/08/18 03:55:39;;;;;;;;;;;20.40;60.70;;;;;;5020904;28;1449;-71
2021/08/18 03:58:04;;;;;;;;;;;20.30;60.60;;;;;;5016218;28;1641;-71
2021/08/18 04:00:29;;;;;;;;;;;20.30;60.60;;;;;;5016261;28;1705;-71
2021/08/18 04:02:55;;;;;;;;;;;20.30;60.50;;;;;;5016002;28;1568;-71
2021/08/18 04:05:20;;;;;;;;;;;20.40;60.70;;;;;;5015688;28;1914;-71
2021/08/18 04:07:46;;;;;;;;;;;20.40;60.50;;;;;;5015986;28;1549;-70
2021/08/18 04:10:12;;;;;;;;;;;20.30;60.50;;;;;;5016013;28;1722;-71
2021/08/18 04:12:53;;;;;;;;;;;20.30;60.50;;;;;;5015785;28;1658;-70
2021/08/18 04:15:20;;;;;;;;;;;20.40;60.50;;;;;;4998026;28;1680;-71
2021/08/18 04:17:45;;;;;;;;;;;20.40;60.50;;;;;;4998285;28;1635;-71
2021/08/18 04:20:11;;;;;;;;;;;20.40;60.50;;;;;;5015710;28;1600;-73
2021/08/18 04:22:37;;;;;;;;;;;20.40;60.90;;;;;;5015850;28;1611;-72
2021/08/18 04:25:03;;;;;;;;;;;20.40;60.80;;;;;;4997978;28;1957;-72
2021/08/18 04:27:28;;;;;;;;;;;20.40;60.50;;;;;;5016296;28;1359;-71
2021/08/18 04:29:54;;;;;;;;;;;20.30;60.50;;;;;;4998148;28;1610;-71
2021/08/18 04:32:19;;;;;;;;;;;20.40;60.70;;;;;;5015640;28;1567;-71
2021/08/18 04:34:45;;;;;;;;;;;20.30;61.00;;;;;;5015557;28;1602;-71
2021/08/18 04:37:10;;;;;;;;;;;20.30;61.00;;;;;;5014749;28;1565;-71
2021/08/18 04:39:36;;;;;;;;;;;20.30;61.10;;;;;;5015282;28;934;-71
2021/08/18 04:42:01;;;;;;;;;;;20.30;61.20;;;;;;4997771;28;1375;-72
2021/08/18 04:44:27;;;;;;;;;;;20.30;61.10;;;;;;5015378;28;1312;-71
2021/08/18 04:46:52;;;;;;;;;;;20.30;61.00;;;;;;5015215;28;1953;-71
2021/08/18 04:49:18;;;;;;;;;;;20.30;60.90;;;;;;5007936;28;1423;-72
2021/08/18 04:51:43;;;;;;;;;;;20.30;60.80;;;;;;5008967;28;1278;-71
2021/08/18 04:54:09;;;;;;;;;;;20.30;60.80;;;;;;5015223;28;1264;-71
2021/08/18 04:56:34;;;;;;;;;;;20.30;60.70;;;;;;5001557;28;1385;-71
2021/08/18 04:58:59;;;;;;;;;;;20.30;60.70;;;;;;4991362;28;1330;-72
2021/08/18 05:01:25;;;;;;;;;;;20.30;60.80;;;;;;5008126;28;1269;-69
2021/08/18 05:03:50;;;;;;;;;;;20.30;60.80;;;;;;5014733;28;1297;-71
2021/08/18 05:06:16;;;;;;;;;;;20.30;60.80;;;;;;5014344;28;1943;-70
2021/08/18 05:08:41;;;;;;;;;;;20.30;60.80;;;;;;5014854;28;1288;-70
2021/08/18 05:11:06;;;;;;;;;;;20.30;60.50;;;;;;5014637;28;1323;-71
2021/08/18 05:13:32;;;;;;;;;;;20.30;60.20;;;;;;5014864;28;1300;-70
2021/08/18 05:15:57;;;;;;;;;;;20.30;60.70;;;;;;5014323;28;1283;-73
2021/08/18 05:18:23;;;;;;;;;;;20.40;62.30;;;;;;5014339;28;1293;-72
2021/08/18 05:20:48;;;;;;;;;;;20.40;63.20;;;;;;5014677;28;1300;-71
2021/08/18 05:23:13;;;;;;;;;;;20.30;63.80;;;;;;4996751;28;1184;-70
2021/08/18 05:25:39;;;;;;;;;;;20.40;63.60;;;;;;5014119;28;1961;-70
2021/08/18 05:28:05;;;;;;;;;;;20.40;64.40;;;;;;5020125;28;1349;-73
2021/08/18 05:30:30;;;;;;;;;;;20.40;63.30;;;;;;5021414;28;1345;-72
2021/08/18 05:32:56;;;;;;;;;;;20.40;63.40;;;;;;4996581;28;1399;-72
2021/08/18 05:35:21;;;;;;;;;;;20.40;64.00;;;;;;5014076;28;1268;-73
2021/08/18 05:37:46;;;;;;;;;;;20.40;63.00;;;;;;5014070;28;1383;-72
2021/08/18 05:40:12;;;;;;;;;;;20.40;64.00;;;;;;5013602;28;1647;-72
2021/08/18 05:42:38;;;;;;;;;;;20.40;64.10;;;;;;4996608;28;1324;-72
2021/08/18 05:45:04;;;;;;;;;;;20.50;62.90;;;;;;4990341;28;1678;-69
2021/08/18 05:47:30;;;;;;;;;;;20.40;62.40;;;;;;5013568;28;1898;-69
2021/08/18 05:49:55;;;;;;;;;;;20.40;62.60;;;;;;4984199;28;1283;-69
2021/08/18 05:52:21;;;;;;;;;;;20.40;62.40;;;;;;5012814;28;1367;-69
2021/08/18 05:54:46;;;;;;;;;;;20.40;62.70;;;;;;5017763;28;1252;-70
2021/08/18 05:57:12;;;;;;;;;;;20.40;61.80;;;;;;5014498;28;1385;-70
2021/08/18 05:59:37;;;;;;;;;;;20.40;62.40;;;;;;5013861;28;1318;-69
2021/08/18 06:02:03;;;;;;;;;;;20.50;62.50;;;;;;5013416;28;1274;-72
2021/08/18 06:04:28;;;;;;;;;;;20.40;62.80;;;;;;4996119;28;1312;-73
2021/08/18 06:06:54;;;;;;;;;;;20.40;62.60;;;;;;4995049;28;1903;-72
2021/08/18 06:09:20;;;;;;;;;;;20.50;63.50;;;;;;5013768;28;1281;-72
2021/08/18 06:11:45;;;;;;;;;;;20.40;62.30;;;;;;5013474;28;1338;-72
2021/08/18 06:14:11;;;;;;;;;;;20.50;62.20;;;;;;5013631;28;1296;-73
2021/08/18 06:16:36;;;;;;;;;;;20.40;62.90;;;;;;4995481;28;1314;-73
2021/08/18 06:19:01;;;;;;;;;;;20.40;62.70;;;;;;5013469;28;1322;-71
2021/08/18 06:21:27;;;;;;;;;;;20.40;62.80;;;;;;5013397;28;1370;-72
2021/08/18 06:24:01;;;;;;;;;;;20.40;62.90;;;;;;5013656;28;1117;-72
2021/08/18 06:26:27;;;;;;;;;;;20.40;62.40;;;;;;4996944;28;1898;-71
2021/08/18 06:28:52;;;;;;;;;;;20.40;62.40;;;;;;5014256;28;1230;-72
2021/08/18 06:31:18;;;;;;;;;;;20.40;62.30;;;;;;5013029;28;1355;-70
2021/08/18 06:33:43;;;;;;;;;;;20.40;62.60;;;;;;5013685;28;1295;-71
2021/08/18 06:36:09;;;;;;;;;;;20.40;62.70;;;;;;5012905;28;1340;-71
2021/08/18 06:38:34;;;;;;;;;;;20.50;62.70;;;;;;5013181;28;1394;-72
2021/08/18 06:41:00;;;;;;;;;;;20.40;61.90;;;;;;5013168;28;1340;-73
2021/08/18 06:43:25;;;;;;;;;;;20.40;62.80;;;;;;5013279;28;1338;-72
2021/08/18 06:45:51;;;;;;;;;;;20.40;62.20;;;;;;4995114;28;1898;-72
2021/08/18 06:48:16;;;;;;;;;;;20.40;62.60;;;;;;5012987;28;1261;-72
2021/08/18 06:50:42;;;;;;;;;;;20.40;62.50;;;;;;5013039;28;1246;-72
2021/08/18 06:53:07;;;;;;;;;;;20.50;62.60;;;;;;5013399;28;1362;-72
2021/08/18 06:55:34;;;;;;;;;;;20.40;62.20;;;;;;5017754;28;1073;-72
2021/08/18 06:57:59;;;;;;;;;;;20.40;62.90;;;;;;5013072;28;1330;-71
2021/08/18 07:00:25;;;;;;;;;;;20.40;62.80;;;;;;5012855;28;1302;-72
2021/08/18 07:02:51;;;;;;;;;;;20.40;62.90;;;;;;4995235;28;1343;-72
2021/08/18 07:05:18;;;;;;;;;;;20.40;63.10;;;;;;5013050;28;1906;-73
2021/08/18 07:07:43;;;;;;;;;;;20.40;63.10;;;;;;4979259;28;1708;-73
2021/08/18 07:10:09;;;;;;;;;;;20.40;62.90;;;;;;4995259;28;1408;-73
2021/08/18 07:12:35;;;;;;;;;;;20.40;63.00;;;;;;5012749;28;1340;-73
2021/08/18 07:15:00;;;;;;;;;;;20.40;62.70;;;;;;4995124;28;1390;-73
2021/08/18 07:17:25;;;;;;;;;;;20.40;62.60;;;;;;5012753;28;1693;-73
2021/08/18 07:19:51;;;;;;;;;;;20.50;63.10;;;;;;5016760;28;1179;-72
2021/08/18 07:22:16;;;;;;;;;;;20.40;62.50;;;;;;5016665;28;1514;-72
2021/08/18 07:24:42;;;;;;;;;;;20.40;62.90;;;;;;5016724;28;1339;-74
2021/08/18 07:27:07;;;;;;;;;;;20.40;62.90;;;;;;5016363;28;1906;-74
2021/08/18 07:29:32;;;;;;;;;;;20.40;62.50;;;;;;5012250;28;1127;-74
2021/08/18 07:31:58;;;;;;;;;;;20.40;62.30;;;;;;5016560;28;1243;-73
2021/08/18 07:34:23;;;;;;;;;;;20.40;62.40;;;;;;4998907;28;1120;-74
2021/08/18 07:36:49;;;;;;;;;;;20.40;62.10;;;;;;5016309;28;1308;-74
2021/08/18 07:39:14;;;;;;;;;;;20.40;62.30;;;;;;5016643;28;1401;-74
2021/08/18 07:41:40;;;;;;;;;;;20.40;62.30;;;;;;5016396;28;1299;-73
2021/08/18 07:44:05;;;;;;;;;;;20.40;62.50;;;;;;5016302;28;1184;-72
2021/08/18 07:46:30;;;;;;;;;;;20.40;62.10;;;;;;4998332;28;1957;-73
2021/08/18 07:48:56;;;;;;;;;;;20.40;62.50;;;;;;5002138;28;1336;-72
2021/08/18 07:51:21;;;;;;;;;;;20.40;62.60;;;;;;4989800;28;1274;-72
2021/08/18 07:53:47;;;;;;;;;;;20.40;62.60;;;;;;5016161;28;1129;-73
2021/08/18 07:56:12;;;;;;;;;;;20.40;62.70;;;;;;4995622;28;1237;-73
2021/08/18 07:58:38;;;;;;;;;;;20.40;62.70;;;;;;4988520;28;1190;-73
2021/08/18 08:01:04;;;;;;;;;;;20.40;62.70;;;;;;4988950;28;1370;-72
2021/08/18 08:03:30;;;;;;;;;;;20.40;63.00;;;;;;5015947;28;1076;-72
2021/08/18 08:05:55;;;;;;;;;;;20.40;62.90;;;;;;5015832;28;1906;-72
2021/08/18 08:08:21;;;;;;;;;;;20.40;62.80;;;;;;5015967;28;1148;-72
2021/08/18 08:10:46;;;;;;;;;;;20.40;62.40;;;;;;5015823;28;1271;-71
2021/08/18 08:13:12;;;;;;;;;;;20.40;62.30;;;;;;5015916;28;1299;-72
2021/08/18 08:15:37;;;;;;;;;;;20.40;62.90;;;;;;5015286;28;1151;-73
2021/08/18 08:18:02;;;;;;;;;;;20.40;62.80;;;;;;5015828;28;1360;-72
2021/08/18 08:20:28;;;;;;;;;;;20.40;63.20;;;;;;4998160;28;1291;-73
2021/08/18 08:22:54;;;;;;;;;;;20.40;63.80;;;;;;4993490;28;1407;-73
2021/08/18 08:25:19;;;;;;;;;;;20.40;63.10;;;;;;4997867;28;1902;-74
2021/08/18 08:27:45;;;;;;;;;;;20.40;63.20;;;;;;5016341;28;1112;-73
2021/08/18 08:30:10;;;;;;;;;;;20.40;63.20;;;;;;5014557;28;1140;-73
2021/08/18 08:32:37;;;;;;;;;;;20.50;63.00;;;;;;5003156;28;1233;-73
2021/08/18 08:35:02;;;;;;;;;;;20.50;63.00;;;;;;5015342;28;1069;-74
2021/08/18 08:37:27;;;;;;;;;;;20.40;62.70;;;;;;5015578;28;1111;-74
2021/08/18 08:39:53;;;;;;;;;;;20.40;62.20;;;;;;5015537;28;1084;-74
2021/08/18 08:42:18;;;;;;;;;;;20.50;62.80;;;;;;5015320;28;1292;-74
2021/08/18 08:44:44;;;;;;;;;;;20.40;62.60;;;;;;5015295;28;1081;-74
2021/08/18 08:47:09;;;;;;;;;;;20.50;62.20;;;;;;4997308;28;1950;-72
2021/08/18 08:49:35;;;;;;;;;;;20.50;62.80;;;;;;5015141;28;1218;-72
2021/08/18 08:52:00;;;;;;;;;;;20.50;62.50;;;;;;4997444;28;1333;-72
2021/08/18 08:54:25;;;;;;;;;;;20.40;62.50;;;;;;5016145;28;1426;-72
2021/08/18 08:56:51;;;;;;;;;;;20.50;62.50;;;;;;5001313;28;1335;-72
2021/08/18 08:59:16;;;;;;;;;;;20.50;62.70;;;;;;5014778;28;1072;-73
2021/08/18 09:02:01;;;;;;;;;;;20.50;62.60;;;;;;5006095;28;1279;-73
2021/08/18 09:04:34;;;;;;;;;;;20.50;62.50;;;;;;5006512;28;1229;-72
2021/08/18 09:07:12;;;;;;;;;;;20.40;62.40;;;;;;5010507;28;1914;-72
2021/08/18 09:09:38;;;;;;;;;;;20.50;62.30;;;;;;5009334;28;1288;-72
2021/08/18 09:12:05;;;;;;;;;;;20.40;63.50;;;;;;5014805;28;1204;-72
2021/08/18 09:14:30;;;;;;;;;;;20.40;62.40;;;;;;4994968;28;1324;-72
2021/08/18 09:16:55;;;;;;;;;;;20.40;62.70;;;;;;5011713;28;1104;-72
2021/08/18 09:19:26;;;;;;;;;;;20.40;62.50;;;;;;5002124;28;1919;-72
2021/08/18 09:21:51;;;;;;;;;;;20.40;62.60;;;;;;5012560;28;1829;-72
2021/08/18 09:24:23;;;;;;;;;;;20.50;62.70;;;;;;5016324;28;2019;-72
2021/08/18 09:26:56;;;;;;;;;;;20.40;62.70;;;;;;5013252;28;1969;-74
2021/08/18 09:29:50;;;;;;;;;;;20.50;62.60;;;;;;5011632;28;1193;-74
2021/08/18 09:32:32;;;;;;;;;;;20.40;62.30;;;;;;4989979;28;1367;-75
2021/08/18 09:34:58;;;;;;;;;;;20.40;62.50;;;;;;4996235;28;1481;-75
2021/08/18 09:37:24;;;;;;;;;;;20.40;62.80;;;;;;5000356;28;1052;-75
2021/08/18 09:39:49;;;;;;;;;;;20.50;62.50;;;;;;5013718;28;1072;-75
2021/08/18 09:42:41;;;;;;;;;;;20.50;62.90;;;;;;4995884;28;1390;-76
2021/08/18 09:45:07;;;;;;;;;;;20.50;62.70;;;;;;5010775;28;1202;-75
2021/08/18 09:47:32;;;;;;;;;;;20.50;62.50;;;;;;5013507;28;1961;-75
2021/08/18 09:49:58;;;;;;;;;;;20.40;62.90;;;;;;5013873;28;1264;-75
2021/08/18 09:52:23;;;;;;;;;;;20.40;62.80;;;;;;4996405;28;1501;-76
2021/08/18 09:54:49;;;;;;;;;;;20.40;63.60;;;;;;5000785;28;1406;-76
2021/08/18 09:57:14;;;;;;;;;;;20.40;62.80;;;;;;5014369;28;1034;-75
2021/08/18 09:59:43;;;;;;;;;;;20.40;63.00;;;;;;5014113;28;1306;-76
2021/08/18 10:02:09;;;;;;;;;;;20.50;63.20;;;;;;5013823;28;1688;-76
2021/08/18 10:04:34;;;;;;;;;;;20.40;63.00;;;;;;4980238;28;1351;-74
2021/08/18 10:07:00;;;;;;;;;;;20.40;63.00;;;;;;4996282;28;1973;-76
2021/08/18 10:09:25;;;;;;;;;;;20.50;63.30;;;;;;4996330;28;1506;-76
2021/08/18 10:11:50;;;;;;;;;;;20.40;63.20;;;;;;4996409;28;1455;-75
2021/08/18 10:14:16;;;;;;;;;;;20.50;63.10;;;;;;4996042;28;1688;-76
2021/08/18 10:16:41;;;;;;;;;;;20.50;63.20;;;;;;4995834;28;1657;-75
2021/08/18 10:19:07;;;;;;;;;;;20.40;63.20;;;;;;4978296;28;1563;-75
2021/08/18 10:21:32;;;;;;;;;;;20.50;62.80;;;;;;4995441;28;1360;-75
2021/08/18 10:24:07;;;;;;;;;;;20.50;62.80;;;;;;4996026;28;1311;-75
2021/08/18 10:26:36;;;;;;;;;;;20.40;63.10;;;;;;4995313;28;1898;-76
2021/08/18 10:29:16;;;;;;;;;;;20.50;63.20;;;;;;5012503;28;1554;-72
2021/08/18 10:31:48;;;;;;;;;;;20.50;63.30;;;;;;4992463;28;1892;-70
2021/08/18 10:34:22;;;;;;;;;;;20.50;64.30;;;;;;5012272;28;1293;-75
2021/08/18 10:36:48;;;;;;;;;;;20.50;63.50;;;;;;5013109;28;1053;-72
2021/08/18 10:39:25;;;;;;;;;;;20.50;63.60;;;;;;5012848;28;1093;-72
2021/08/18 10:42:09;;;;;;;;;;;20.50;63.60;;;;;;5013196;28;1351;-74
2021/08/18 10:44:37;;;;;;;;;;;20.50;63.40;;;;;;5013208;28;1278;-74
2021/08/18 10:47:21;;;;;;;;;;;20.50;63.30;;;;;;5012737;28;1971;-71
2021/08/18 10:52:28;;;;;;;;;;;20.50;62.90;;;;;;5766718;23;1897;-72
2021/08/18 10:55:06;;;;;;;;;;;20.50;63.20;;;;;;5052270;28;1545;-75
2021/08/18 10:57:38;;;;;;;;;;;20.50;62.70;;;;;;5044949;28;1418;-74
2021/08/18 11:00:15;;;;;;;;;;;20.50;62.70;;;;;;5052224;28;1442;-75
2021/08/18 11:03:01;;;;;;;;;;;20.50;63.20;;;;;;5050189;28;1507;-73
2021/08/18 11:05:27;;;;;;;;;;;20.50;63.20;;;;;;5051740;28;1922;-72
2021/08/18 11:08:15;;;;;;;;;;;20.50;63.00;;;;;;5050439;28;1582;-71
2021/08/18 11:10:43;;;;;;;;;;;20.50;62.90;;;;;;5034224;28;1444;-72
2021/08/18 11:13:10;;;;;;;;;;;20.50;62.60;;;;;;5050434;28;1317;-70
2021/08/18 11:15:41;;;;;;;;;;;20.50;62.70;;;;;;5052294;28;1660;-70
2021/08/18 11:18:07;;;;;;;;;;;20.50;62.40;;;;;;5052138;28;1126;-72
2021/08/18 11:20:32;;;;;;;;;;;20.50;62.20;;;;;;5049903;28;2226;-70
2021/08/18 11:22:58;;;;;;;;;;;20.50;62.20;;;;;;5047223;28;1281;-70
2021/08/18 11:25:24;;;;;;;;;;;20.50;62.50;;;;;;5049698;28;1967;-71
2021/08/18 11:30:25;;;;;;;;;;;20.50;62.90;;;;;;5473296;22;1612;-65
2021/08/18 11:32:51;;;;;;;;;;;20.50;63.10;;;;;;5011829;28;2230;-65
2021/08/18 11:35:31;;;;;;;;;;;20.50;63.20;;;;;;5024160;28;1324;-65
2021/08/18 11:38:00;;;;;;;;;;;20.50;63.00;;;;;;5012022;28;1329;-65
2021/08/18 11:40:26;;;;;;;;;;;20.50;63.10;;;;;;4998822;28;1288;-64
2021/08/18 11:42:51;;;;;;;;;;;20.50;63.10;;;;;;5011849;28;1309;-64
2021/08/18 11:45:18;;;;;;;;;;;20.50;63.00;;;;;;4997886;28;1049;-65
2021/08/18 11:47:46;;;;;;;;;;;20.50;63.10;;;;;;4992096;28;1910;-64
2021/08/18 11:50:12;;;;;;;;;;;20.50;63.00;;;;;;5005760;28;1385;-63
2021/08/18 11:55:12;;;;;;;;;;;20.50;62.90;;;;;;5231483;23;1951;-69
2021/08/18 11:57:38;;;;;;;;;;;20.50;62.90;;;;;;5025484;28;1487;-71
2021/08/18 12:00:04;;;;;;;;;;;20.50;63.00;;;;;;5030189;28;1912;-70
2021/08/18 12:02:30;;;;;;;;;;;20.50;63.00;;;;;;5032005;28;1140;-71
2021/08/18 12:04:59;;;;;;;;;;;20.50;63.00;;;;;;5031868;28;1303;-70
2021/08/18 12:07:28;;;;;;;;;;;20.50;63.10;;;;;;5035875;28;1918;-70
2021/08/18 12:10:12;;;;;;;;;;;20.50;62.80;;;;;;5035130;28;793;-74
2021/08/18 12:12:37;;;;;;;;;;;20.50;62.80;;;;;;5032264;28;1348;-74
2021/08/18 12:15:12;;;;;;;;;;;20.50;62.80;;;;;;5021896;28;1660;-70
2021/08/18 12:17:38;;;;;;;;;;;20.50;62.60;;;;;;5029305;28;1282;-70
2021/08/18 12:20:04;;;;;;;;;;;20.50;62.80;;;;;;5031326;28;1297;-71
2021/08/18 12:22:31;;;;;;;;;;;20.50;62.90;;;;;;5034655;28;961;-74
2021/08/18 12:25:09;;;;;;;;;;;20.50;62.80;;;;;;5032951;28;1342;-76
2021/08/18 12:27:34;;;;;;;;;;;20.50;62.40;;;;;;5035549;28;1956;-73
2021/08/18 12:30:00;;;;;;;;;;;20.50;62.50;;;;;;5045526;28;1323;-70
2021/08/18 12:32:26;;;;;;;;;;;20.50;62.60;;;;;;5033135;28;1343;-74
2021/08/18 12:34:58;;;;;;;;;;;20.50;62.50;;;;;;5034009;28;1316;-73
2021/08/18 12:37:25;;;;;;;;;;;20.50;62.60;;;;;;5032974;28;1297;-72
2021/08/18 12:39:54;;;;;;;;;;;20.50;62.60;;;;;;5032988;28;1391;-74
2021/08/18 12:42:21;;;;;;;;;;;20.50;62.70;;;;;;5033050;28;1337;-73
2021/08/18 12:44:56;;;;;;;;;;;20.50;62.50;;;;;;5032999;28;1322;-71
2021/08/18 12:47:22;;;;;;;;;;;20.50;62.30;;;;;;5034017;28;2004;-73
2021/08/18 12:49:48;;;;;;;;;;;20.50;62.50;;;;;;5032866;28;1773;-76
2021/08/18 12:52:13;;;;;;;;;;;20.50;62.40;;;;;;5032345;28;1029;-71
2021/08/18 12:54:39;;;;;;;;;;;20.50;62.40;;;;;;5032010;28;1278;-73
2021/08/18 12:57:04;;;;;;;;;;;20.50;62.30;;;;;;5034562;28;1233;-74
2021/08/18 12:59:34;;;;;;;;;;;20.50;62.20;;;;;;5033150;28;1217;-74
2021/08/18 13:01:59;;;;;;;;;;;20.50;62.20;;;;;;5033639;28;1553;-74
2021/08/18 13:04:24;;;;;;;;;;;20.50;61.90;;;;;;5034327;28;1268;-74
2021/08/18 13:06:50;;;;;;;;;;;20.50;62.20;;;;;;5034428;28;1898;-73
2021/08/18 13:09:15;;;;;;;;;;;20.50;62.20;;;;;;5033586;28;1340;-73
2021/08/18 13:11:41;;;;;;;;;;;20.50;62.20;;;;;;5032248;28;1753;-73
2021/08/18 13:14:06;;;;;;;;;;;20.50;62.10;;;;;;5033427;28;1505;-73
2021/08/18 13:16:32;;;;;;;;;;;20.50;62.40;;;;;;5025062;28;1675;-73
2021/08/18 13:18:57;;;;;;;;;;;20.50;62.30;;;;;;5034297;28;1452;-73
2021/08/18 13:21:23;;;;;;;;;;;20.50;62.60;;;;;;5032387;28;1290;-73
2021/08/18 13:23:48;;;;;;;;;;;20.50;62.50;;;;;;5033141;28;1637;-73
2021/08/18 13:26:14;;;;;;;;;;;20.50;62.50;;;;;;5033671;28;1883;-74
2021/08/18 13:28:40;;;;;;;;;;;20.50;62.60;;;;;;5033144;28;1368;-73
2021/08/18 13:31:05;;;;;;;;;;;20.50;62.70;;;;;;5034244;28;1576;-73
2021/08/18 13:33:31;;;;;;;;;;;20.50;62.70;;;;;;5033924;28;1397;-72
2021/08/18 13:35:56;;;;;;;;;;;20.50;62.60;;;;;;5034119;28;1341;-75
2021/08/18 13:38:22;;;;;;;;;;;20.50;62.60;;;;;;5031769;28;1892;-72
2021/08/18 13:40:47;;;;;;;;;;;20.50;62.70;;;;;;5027907;28;1121;-73
2021/08/18 13:43:12;;;;;;;;;;;20.50;62.80;;;;;;5033454;28;1085;-74
2021/08/18 13:45:38;;;;;;;;;;;20.50;62.90;;;;;;5029247;28;1969;-70
2021/08/18 13:48:04;;;;;;;;;;;20.50;62.80;;;;;;5033789;28;1342;-73
2021/08/18 13:50:29;;;;;;;;;;;20.50;62.70;;;;;;5047129;28;1345;-73
2021/08/18 13:52:54;;;;;;;;;;;20.50;62.80;;;;;;5032607;28;1287;-74
2021/08/18 13:55:20;;;;;;;;;;;20.50;62.80;;;;;;5036972;28;1288;-74
2021/08/18 13:57:45;;;;;;;;;;;20.50;62.70;;;;;;5032933;28;1672;-74
2021/08/18 14:00:11;;;;;;;;;;;20.50;62.70;;;;;;5017273;28;1964;-74
2021/08/18 14:02:36;;;;;;;;;;;20.50;62.70;;;;;;5031151;28;1117;-75
2021/08/18 14:05:02;;;;;;;;;;;20.50;62.70;;;;;;5028721;28;1304;-73
2021/08/18 14:07:27;;;;;;;;;;;20.50;62.90;;;;;;5029552;28;2144;-73
2021/08/18 14:09:54;;;;;;;;;;;20.50;63.00;;;;;;5031583;28;1132;-73
2021/08/18 14:12:19;;;;;;;;;;;20.50;63.10;;;;;;5031857;28;1434;-74
2021/08/18 14:14:44;;;;;;;;;;;20.50;63.10;;;;;;5031043;28;1340;-73
2021/08/18 14:17:10;;;;;;;;;;;20.50;63.00;;;;;;5033776;28;1088;-74
2021/08/18 14:19:35;;;;;;;;;;;20.50;63.10;;;;;;5031767;28;1525;-74
2021/08/18 14:22:01;;;;;;;;;;;20.50;63.20;;;;;;5031352;28;1064;-74
2021/08/18 14:24:26;;;;;;;;;;;20.50;63.20;;;;;;5033471;28;1386;-74
2021/08/18 14:26:52;;;;;;;;;;;20.50;63.20;;;;;;5033252;28;1898;-74
2021/08/18 14:29:18;;;;;;;;;;;20.50;63.10;;;;;;5014610;28;1421;-74
2021/08/18 14:31:43;;;;;;;;;;;20.50;62.90;;;;;;5033522;28;1131;-73
2021/08/18 14:34:09;;;;;;;;;;;20.50;63.00;;;;;;5031309;28;1397;-73
2021/08/18 14:36:34;;;;;;;;;;;20.60;63.40;;;;;;5033139;28;1088;-73